Flight Track Log - Related Links

Times and Time Zones

All times are in EST time to prevent confusion due to time zone crossing. See the DAL1832 flight status page for this flight to view local times or setup timezone preferences in your user account.

Time Position Orientation Groundspeed Altitude Reporting Facility
EST Latitude Longitude Course Direction KTS MPH feet Rate Location/Type
Wed 04:55:47 PM 44.8833 -93.3117 154° Southeast 208 239 4,300  Level Minneapolis Center
Wed 04:56:49 PM 44.8258 -93.3694 215° Southwest 261 300 8,400 3,290 Climbing Minneapolis Center
Wed 04:57:00 PM 44.6788 -92.8296 153° Southeast  Level Estimated
Wed 04:57:51 PM 44.7564 -93.3775 185° South 289 333 11,100  Level Minneapolis Center
Wed 04:58:00 PM 44.6108 -92.6995 157° South  Level Estimated
Wed 04:58:53 PM 44.6611 -93.2869 146° Southeast 365 420 13,700  Level Minneapolis Center
Wed 04:59:00 PM 44.5426 -92.5697 150° Southeast  Level Estimated
Wed 04:59:56 PM 44.5747 -93.2081 147° Southeast 376 433 16,800  Level Minneapolis Center
Wed 05:00:00 PM 44.4743 -92.4402 154° Southeast  Level Estimated
Wed 05:00:58 PM 44.4844 -93.1264 147° Southeast 384 442 19,000  Level Minneapolis Center
Wed 05:01:59 PM 44.3903 -93.0422 147° Southeast 401 461 21,400 2,098 Climbing Minneapolis Center
Wed 05:03:01 PM 44.2919 -92.9547 147° Southeast 417 480 23,300 1,984 Climbing Minneapolis Center
Wed 05:04:03 PM 44.1661 -92.8603 152° Southeast 431 496 25,500 1,742 Climbing Minneapolis Center
Wed 05:05:05 PM 44.0558 -92.7856 154° Southeast 440 506 26,900 726 Climbing Minneapolis Center
Wed 05:06:07 PM 43.9458 -92.7086 153° Southeast 443 510 27,000 49 Climbing Minneapolis Center
Wed 05:07:08 PM 43.8408 -92.6181 148° Southeast 448 516 27,000  Level Minneapolis Center
Wed 05:08:10 PM 43.7483 -92.5197 142° Southeast 452 520 27,000  Level Minneapolis Center
Wed 05:09:12 PM 43.6269 -92.3917 143° Southeast 460 529 27,000  Level Minneapolis Center
Wed 05:10:14 PM 43.5258 -92.2889 144° Southeast 455 524 27,000  Level Minneapolis Center
Wed 05:11:16 PM 43.4236 -92.1850 144° Southeast 458 527 27,000  Level Minneapolis Center
Wed 05:12:17 PM 43.3206 -92.0778 143° Southeast 464 534 27,000  Level Minneapolis Center
Wed 05:13:19 PM 43.2167 -91.9722 143° Southeast 467 537 27,000  Level Minneapolis Center
Wed 05:14:16 PM 43.1114 -91.8683 144° Southeast 464 534 27,000  Level Chicago Center
Wed 05:15:17 PM 43.0078 -91.7625 143° Southeast 467 537 27,000  Level Chicago Center
Wed 05:16:19 PM 42.9031 -91.6564 143° Southeast 466 536 27,000  Level Chicago Center
Wed 05:17:21 PM 42.7950 -91.5494 144° Southeast 464 534 27,000  Level Chicago Center
Wed 05:18:23 PM 42.6886 -91.4414 143° Southeast 463 533 27,000  Level Chicago Center
Wed 05:19:25 PM 42.5850 -91.3314 142° Southeast 471 542 27,000  Level Chicago Center
Wed 05:20:27 PM 42.4575 -91.2072 144° Southeast 471 542 27,000 -293 Level Chicago Center
Wed 05:21:28 PM 42.3511 -91.1025 144° Southeast 473 544 26,400 -732 Descending Chicago Center
Wed 05:22:30 PM 42.2481 -91.0019 144° Southeast 460 529 25,500 -1,161 Descending Chicago Center
Wed 05:23:32 PM 42.1481 -90.9061 145° Southeast 446 513 24,000 -726 Descending Chicago Center
Wed 05:24:34 PM 42.0458 -90.8069 144° Southeast 454 522 24,000 -339 Level Chicago Center
Wed 05:25:36 PM 41.9386 -90.7028 144° Southeast 475 547 23,300 -488 Descending Chicago Center
Wed 05:26:37 PM 41.8472 -90.5733 133° Southeast 480 552 23,000 -146 Descending Chicago Center
Wed 05:27:39 PM 41.7394 -90.4175 133° Southeast 484 557 23,000  Level Chicago Center
Wed 05:28:41 PM 41.6464 -90.2839 133° Southeast 489 563 23,000  Level Chicago Center
Wed 05:29:42 PM 41.5531 -90.1492 133° Southeast 491 565 23,000  Level Chicago Center
Wed 05:30:44 PM 41.4503 -90.0531 145° Southeast 456 525 23,000 -339 Level Chicago Center
Wed 05:31:46 PM 41.3403 -89.9944 158° South 430 495 22,300 -829 Descending Chicago Center
Wed 05:32:47 PM 41.2383 -89.9433 159° South 399 459 21,300 -1,317 Descending Chicago Center
Wed 05:33:49 PM 41.1469 -89.8975 159° South 353 406 19,600 -1,561 Descending Chicago Center
Wed 05:34:50 PM 41.1103 -89.7592 109° East 354 407 18,100 -1,610 Descending Chicago Center
Wed 05:35:52 PM 41.1222 -89.6308 83° East 349 402 16,300 -1,694 Descending Chicago Center
Wed 05:36:54 PM 41.1344 -89.5097 82° East 334 384 14,600 -1,597 Descending Chicago Center
Wed 05:37:56 PM 41.1458 -89.3933 83° East 320 368 13,000 -1,707 Descending Chicago Center
Wed 05:38:57 PM 41.1567 -89.2844 82° East 303 349 11,100 -1,415 Descending Chicago Center
Wed 05:39:59 PM 41.1681 -89.1725 82° East 295 339 10,100 -484 Descending Chicago Center
Wed 05:41:01 PM 41.2050 -89.0783 62° Northeast 295 339 10,100  Level Chicago Center
Wed 05:42:02 PM 41.2517 -88.9919 54° Northeast 288 331 10,100  Level Chicago Center
Wed 05:43:04 PM 41.2908 -88.9006 60° Northeast 286 329 10,100 -48 Level Chicago Center
Wed 05:44:06 PM 41.3392 -88.7908 60° Northeast 287 330 10,000 -435 Descending Chicago Center
Wed 05:45:08 PM 41.3792 -88.7000 60° Northeast 286 329 9,200 -878 Descending Chicago Center
Wed 05:46:09 PM 41.4147 -88.6022 64° Northeast 292 336 8,200 -1,024 Descending Chicago Center
Wed 05:47:11 PM 41.4386 -88.5033 72° East 285 328 7,100 -1,065 Descending Chicago Center
Wed 05:48:13 PM 41.4611 -88.4081 72° East 274 315 6,000 -532 Descending Chicago Center
Wed 05:49:15 PM 41.4842 -88.3114 72° East 272 313 6,000 -488 Level Chicago Center
Wed 05:50:16 PM 41.5069 -88.2175 72° East 268 308 5,000 -488 Descending Chicago Center
Wed 05:51:18 PM 41.5300 -88.1244 72° East 264 304 5,000  Level Chicago Center
Wed 05:52:20 PM 41.5519 -88.0306 73° East 262 302 5,000  Level Chicago Center
Wed 05:53:21 PM 41.5744 -87.9369 72° East 262 302 5,000  Level Chicago Center
Wed 05:54:23 PM 41.5811 -87.8303 85° East 244 281 5,000  Level Chicago Center
Wed 05:55:25 PM 41.5814 -87.7558 90° East 218 251 5,000 -48 Level Chicago Center
Wed 05:56:27 PM 41.5803 -87.6853 91° East 203 234 4,900 -439 Descending Chicago Center
Wed 05:57:28 PM 41.5903 -87.6242 78° East 186 214 4,100 -927 Descending Chicago Center
Wed 05:58:30 PM 41.6178 -87.5808 50° Northeast 164 189 3,000 -532 Descending Chicago Center
Wed 05:59:32 PM 41.6536 -87.5700 13° North 159 183 3,000  Level Chicago Center
Wed 06:00:33 PM 41.6836 -87.6106 315° West 157 181 3,000 -195 Level Chicago Center
Wed 06:01:35 PM 41.7178 -87.6586 314° West 152 175 2,600 -581 Descending Chicago Center
Wed 06:02:37 PM 41.7436 -87.6947 314° West 145 167 1,800 -726 Descending Chicago Center
Wed 06:03:39 PM 41.7656 -87.7244 315° West 130 150 1,100 -390 Descending Chicago Center
Wed 06:04:40 PM 41.7872 -87.7544 314° West 128 147 1,000 -98 Descending Chicago Center

Login

Don't have an account? Register now (free) for customized features, flight alerts, and more!